sensor_id;sensor_type;location;lat;lon;timestamp;temperature;humidity
8539;DHT22;4307;53.868;11.680;2023-11-21T00:01:19;7.60;99.90
8539;DHT22;4307;53.868;11.680;2023-11-21T00:03:45;7.70;99.90
8539;DHT22;4307;53.868;11.680;2023-11-21T00:06:12;7.60;99.90
8539;DHT22;4307;53.868;11.680;2023-11-21T00:08:40;7.60;99.90
8539;DHT22;4307;53.868;11.680;2023-11-21T00:11:06;7.60;99.90
8539;DHT22;4307;53.868;11.680;2023-11-21T00:13:33;7.60;99.90
8539;DHT22;4307;53.868;11.680;2023-11-21T00:16:00;7.70;99.90
8539;DHT22;4307;53.868;11.680;2023-11-21T00:18:27;7.60;99.90
8539;DHT22;4307;53.868;11.680;2023-11-21T00:20:54;7.60;99.90
8539;DHT22;4307;53.868;11.680;2023-11-21T00:23:20;7.60;99.90
8539;DHT22;4307;53.868;11.680;2023-11-21T00:25:47;7.60;99.90
8539;DHT22;4307;53.868;11.680;2023-11-21T00:28:14;7.60;99.90
8539;DHT22;4307;53.868;11.680;2023-11-21T00:30:40;7.60;99.90
8539;DHT22;4307;53.868;11.680;2023-11-21T00:33:07;7.60;99.90
8539;DHT22;4307;53.868;11.680;2023-11-21T00:35:35;7.60;99.90
8539;DHT22;4307;53.868;11.680;2023-11-21T00:38:02;7.60;99.90
8539;DHT22;4307;53.868;11.680;2023-11-21T00:40:28;7.60;99.90
8539;DHT22;4307;53.868;11.680;2023-11-21T00:42:56;7.60;99.90
8539;DHT22;4307;53.868;11.680;2023-11-21T00:45:22;7.60;99.90
8539;DHT22;4307;53.868;11.680;2023-11-21T00:47:49;7.60;99.90
8539;DHT22;4307;53.868;11.680;2023-11-21T00:50:16;7.60;99.90
8539;DHT22;4307;53.868;11.680;2023-11-21T00:52:44;7.60;99.90
8539;DHT22;4307;53.868;11.680;2023-11-21T00:55:10;7.60;99.90
8539;DHT22;4307;53.868;11.680;2023-11-21T00:57:37;7.60;99.90
8539;DHT22;4307;53.868;11.680;2023-11-21T01:00:05;7.60;99.90
8539;DHT22;4307;53.868;11.680;2023-11-21T01:02:36;7.60;99.90
8539;DHT22;4307;53.868;11.680;2023-11-21T01:05:03;7.60;99.90
8539;DHT22;4307;53.868;11.680;2023-11-21T01:07:30;7.60;99.90
8539;DHT22;4307;53.868;11.680;2023-11-21T01:09:58;7.50;99.90
8539;DHT22;4307;53.868;11.680;2023-11-21T01:12:24;7.50;99.90
8539;DHT22;4307;53.868;11.680;2023-11-21T01:14:51;7.50;99.90
8539;DHT22;4307;53.868;11.680;2023-11-21T01:17:18;7.50;99.90
8539;DHT22;4307;53.868;11.680;2023-11-21T01:19:44;7.50;99.90
8539;DHT22;4307;53.868;11.680;2023-11-21T01:22:11;7.50;99.90
8539;DHT22;4307;53.868;11.680;2023-11-21T01:24:38;7.50;99.90
8539;DHT22;4307;53.868;11.680;2023-11-21T01:27:06;7.50;99.90
8539;DHT22;4307;53.868;11.680;2023-11-21T01:29:34;7.50;99.90
8539;DHT22;4307;53.868;11.680;2023-11-21T01:32:02;7.40;99.90
8539;DHT22;4307;53.868;11.680;2023-11-21T01:34:28;7.40;99.90
8539;DHT22;4307;53.868;11.680;2023-11-21T01:36:56;7.40;99.90
8539;DHT22;4307;53.868;11.680;2023-11-21T01:39:22;7.40;99.90
8539;DHT22;4307;53.868;11.680;2023-11-21T01:41:49;7.40;99.90
8539;DHT22;4307;53.868;11.680;2023-11-21T01:44:18;7.40;99.90
8539;DHT22;4307;53.868;11.680;2023-11-21T01:46:46;7.40;99.90
8539;DHT22;4307;53.868;11.680;2023-11-21T01:49:13;7.40;99.90
8539;DHT22;4307;53.868;11.680;2023-11-21T01:51:41;7.40;99.90
8539;DHT22;4307;53.868;11.680;2023-11-21T01:54:08;7.30;99.90
8539;DHT22;4307;53.868;11.680;2023-11-21T01:56:37;7.30;99.90
8539;DHT22;4307;53.868;11.680;2023-11-21T01:59:04;7.30;99.90
8539;DHT22;4307;53.868;11.680;2023-11-21T02:01:33;7.30;99.90
8539;DHT22;4307;53.868;11.680;2023-11-21T02:04:00;7.20;99.90
8539;DHT22;4307;53.868;11.680;2023-11-21T02:06:27;7.20;99.90
8539;DHT22;4307;53.868;11.680;2023-11-21T02:08:56;7.20;99.90
8539;DHT22;4307;53.868;11.680;2023-11-21T02:11:23;7.10;99.90
8539;DHT22;4307;53.868;11.680;2023-11-21T02:13:49;7.10;99.90
8539;DHT22;4307;53.868;11.680;2023-11-21T02:16:19;7.10;99.90
8539;DHT22;4307;53.868;11.680;2023-11-21T02:18:47;7.10;99.90
8539;DHT22;4307;53.868;11.680;2023-11-21T02:21:14;7.00;99.90
8539;DHT22;4307;53.868;11.680;2023-11-21T02:23:43;7.00;99.90
8539;DHT22;4307;53.868;11.680;2023-11-21T02:26:11;7.00;99.90
8539;DHT22;4307;53.868;11.680;2023-11-21T02:28:39;7.00;99.90
8539;DHT22;4307;53.868;11.680;2023-11-21T02:31:06;7.00;99.90
8539;DHT22;4307;53.868;11.680;2023-11-21T02:33:33;7.00;99.90
8539;DHT22;4307;53.868;11.680;2023-11-21T02:35:59;6.90;99.90
8539;DHT22;4307;53.868;11.680;2023-11-21T02:38:26;7.00;99.90
8539;DHT22;4307;53.868;11.680;2023-11-21T02:40:56;7.00;99.90
8539;DHT22;4307;53.868;11.680;2023-11-21T02:43:23;7.00;99.90
8539;DHT22;4307;53.868;11.680;2023-11-21T02:45:50;6.90;99.90
8539;DHT22;4307;53.868;11.680;2023-11-21T02:48:17;7.00;99.90
8539;DHT22;4307;53.868;11.680;2023-11-21T02:50:43;7.00;99.90
8539;DHT22;4307;53.868;11.680;2023-11-21T02:53:10;7.00;99.90
8539;DHT22;4307;53.868;11.680;2023-11-21T02:55:38;7.00;99.90
8539;DHT22;4307;53.868;11.680;2023-11-21T02:58:06;7.00;99.90
8539;DHT22;4307;53.868;11.680;2023-11-21T03:00:32;7.00;99.90
8539;DHT22;4307;53.868;11.680;2023-11-21T03:02:59;7.00;99.90
8539;DHT22;4307;53.868;11.680;2023-11-21T03:05:26;7.10;99.90
8539;DHT22;4307;53.868;11.680;2023-11-21T03:07:54;7.10;99.90
8539;DHT22;4307;53.868;11.680;2023-11-21T03:10:21;7.10;99.90
8539;DHT22;4307;53.868;11.680;2023-11-21T03:12:47;7.10;99.90
8539;DHT22;4307;53.868;11.680;2023-11-21T03:15:15;7.10;99.90
8539;DHT22;4307;53.868;11.680;2023-11-21T03:17:42;7.10;99.90
8539;DHT22;4307;53.868;11.680;2023-11-21T03:20:09;7.10;99.90
8539;DHT22;4307;53.868;11.680;2023-11-21T03:22:39;7.10;99.90
8539;DHT22;4307;53.868;11.680;2023-11-21T03:25:06;7.10;99.90
8539;DHT22;4307;53.868;11.680;2023-11-21T03:27:35;7.10;99.90
8539;DHT22;4307;53.868;11.680;2023-11-21T03:30:03;7.10;99.90
8539;DHT22;4307;53.868;11.680;2023-11-21T03:32:33;7.10;99.90
8539;DHT22;4307;53.868;11.680;2023-11-21T03:35:01;7.10;99.90
8539;DHT22;4307;53.868;11.680;2023-11-21T03:37:28;7.10;99.90
8539;DHT22;4307;53.868;11.680;2023-11-21T03:39:55;7.10;99.90
8539;DHT22;4307;53.868;11.680;2023-11-21T03:42:21;7.20;99.90
8539;DHT22;4307;53.868;11.680;2023-11-21T03:44:48;7.10;99.90
8539;DHT22;4307;53.868;11.680;2023-11-21T03:47:15;7.10;99.90
8539;DHT22;4307;53.868;11.680;2023-11-21T03:49:43;7.10;99.90
8539;DHT22;4307;53.868;11.680;2023-11-21T03:52:11;7.10;99.90
8539;DHT22;4307;53.868;11.680;2023-11-21T03:54:37;7.10;99.90
8539;DHT22;4307;53.868;11.680;2023-11-21T03:57:04;7.10;99.90
8539;DHT22;4307;53.868;11.680;2023-11-21T03:59:31;7.10;99.90
8539;DHT22;4307;53.868;11.680;2023-11-21T04:01:57;7.10;99.90
8539;DHT22;4307;53.868;11.680;2023-11-21T04:04:24;7.10;99.90
8539;DHT22;4307;53.868;11.680;2023-11-21T04:06:52;7.10;99.90
8539;DHT22;4307;53.868;11.680;2023-11-21T04:09:19;7.20;99.90
8539;DHT22;4307;53.868;11.680;2023-11-21T04:11:46;7.20;99.90
8539;DHT22;4307;53.868;11.680;2023-11-21T04:14:13;7.20;99.90
8539;DHT22;4307;53.868;11.680;2023-11-21T04:16:40;7.20;99.90
8539;DHT22;4307;53.868;11.680;2023-11-21T04:19:07;7.20;99.90
8539;DHT22;4307;53.868;11.680;2023-11-21T04:21:34;7.20;99.90
8539;DHT22;4307;53.868;11.680;2023-11-21T04:24:03;7.20;99.90
8539;DHT22;4307;53.868;11.680;2023-11-21T04:26:29;7.30;99.90
8539;DHT22;4307;53.868;11.680;2023-11-21T04:28:56;7.30;99.90
8539;DHT22;4307;53.868;11.680;2023-11-21T04:31:22;7.30;99.90
8539;DHT22;4307;53.868;11.680;2023-11-21T04:33:49;7.30;99.90
8539;DHT22;4307;53.868;11.680;2023-11-21T04:36:16;7.30;99.90
8539;DHT22;4307;53.868;11.680;2023-11-21T04:38:43;7.20;99.90
8539;DHT22;4307;53.868;11.680;2023-11-21T04:41:11;7.20;99.90
8539;DHT22;4307;53.868;11.680;2023-11-21T04:43:38;7.20;99.90
8539;DHT22;4307;53.868;11.680;2023-11-21T04:46:05;7.20;99.90
8539;DHT22;4307;53.868;11.680;2023-11-21T04:48:32;7.20;99.90
8539;DHT22;4307;53.868;11.680;2023-11-21T04:50:58;7.20;99.90
8539;DHT22;4307;53.868;11.680;2023-11-21T04:53:25;7.20;99.90
8539;DHT22;4307;53.868;11.680;2023-11-21T04:55:52;7.20;99.90
8539;DHT22;4307;53.868;11.680;2023-11-21T04:58:20;7.10;99.90
8539;DHT22;4307;53.868;11.680;2023-11-21T05:00:47;7.10;99.90
8539;DHT22;4307;53.868;11.680;2023-11-21T05:03:12;7.20;99.90
8539;DHT22;4307;53.868;11.680;2023-11-21T05:05:39;7.10;99.90
8539;DHT22;4307;53.868;11.680;2023-11-21T05:08:06;7.10;99.90
8539;DHT22;4307;53.868;11.680;2023-11-21T05:10:33;7.10;99.90
8539;DHT22;4307;53.868;11.680;2023-11-21T05:13:03;7.10;99.90
8539;DHT22;4307;53.868;11.680;2023-11-21T05:15:31;7.10;99.90
8539;DHT22;4307;53.868;11.680;2023-11-21T05:17:58;7.10;99.90
8539;DHT22;4307;53.868;11.680;2023-11-21T05:20:25;7.10;99.90
8539;DHT22;4307;53.868;11.680;2023-11-21T05:22:52;7.10;99.90
8539;DHT22;4307;53.868;11.680;2023-11-21T05:25:19;7.10;99.90
8539;DHT22;4307;53.868;11.680;2023-11-21T05:27:45;7.10;99.90
8539;DHT22;4307;53.868;11.680;2023-11-21T05:30:13;7.00;99.90
8539;DHT22;4307;53.868;11.680;2023-11-21T05:32:41;7.00;99.90
8539;DHT22;4307;53.868;11.680;2023-11-21T05:35:08;7.00;99.90
8539;DHT22;4307;53.868;11.680;2023-11-21T05:37:39;7.00;99.90
8539;DHT22;4307;53.868;11.680;2023-11-21T05:40:07;7.00;99.90
8539;DHT22;4307;53.868;11.680;2023-11-21T05:42:34;7.00;99.90
8539;DHT22;4307;53.868;11.680;2023-11-21T05:45:01;7.00;99.90
8539;DHT22;4307;53.868;11.680;2023-11-21T05:47:36;7.00;99.90
8539;DHT22;4307;53.868;11.680;2023-11-21T05:50:04;6.90;99.90
8539;DHT22;4307;53.868;11.680;2023-11-21T05:52:35;7.00;99.90
8539;DHT22;4307;53.868;11.680;2023-11-21T05:55:03;7.00;99.90
8539;DHT22;4307;53.868;11.680;2023-11-21T05:57:31;7.00;99.90
8539;DHT22;4307;53.868;11.680;2023-11-21T05:59:57;7.00;99.90
8539;DHT22;4307;53.868;11.680;2023-11-21T06:02:24;7.00;99.90
8539;DHT22;4307;53.868;11.680;2023-11-21T06:04:51;7.00;99.90
8539;DHT22;4307;53.868;11.680;2023-11-21T06:07:19;7.00;99.90
8539;DHT22;4307;53.868;11.680;2023-11-21T06:09:46;7.00;99.90
8539;DHT22;4307;53.868;11.680;2023-11-21T06:12:14;7.10;99.90
8539;DHT22;4307;53.868;11.680;2023-11-21T06:14:41;7.00;99.90
8539;DHT22;4307;53.868;11.680;2023-11-21T06:17:07;7.10;99.90
8539;DHT22;4307;53.868;11.680;2023-11-21T06:19:35;7.10;99.90
8539;DHT22;4307;53.868;11.680;2023-11-21T06:22:01;7.10;99.90
8539;DHT22;4307;53.868;11.680;2023-11-21T06:24:29;7.10;99.90
8539;DHT22;4307;53.868;11.680;2023-11-21T06:26:56;7.10;99.90
8539;DHT22;4307;53.868;11.680;2023-11-21T06:29:24;7.10;99.90
8539;DHT22;4307;53.868;11.680;2023-11-21T06:31:52;7.10;99.90
8539;DHT22;4307;53.868;11.680;2023-11-21T06:34:20;7.00;99.90
8539;DHT22;4307;53.868;11.680;2023-11-21T06:36:47;7.00;99.90
8539;DHT22;4307;53.868;11.680;2023-11-21T06:39:13;7.00;99.90
8539;DHT22;4307;53.868;11.680;2023-11-21T06:41:43;7.00;99.90
8539;DHT22;4307;53.868;11.680;2023-11-21T06:44:10;7.00;99.90
8539;DHT22;4307;53.868;11.680;2023-11-21T06:46:36;7.00;99.90
8539;DHT22;4307;53.868;11.680;2023-11-21T06:49:04;7.00;99.90
8539;DHT22;4307;53.868;11.680;2023-11-21T06:51:32;7.00;99.90
8539;DHT22;4307;53.868;11.680;2023-11-21T06:53:58;7.00;99.90
8539;DHT22;4307;53.868;11.680;2023-11-21T06:56:25;7.00;99.90
8539;DHT22;4307;53.868;11.680;2023-11-21T06:58:53;7.00;99.90
8539;DHT22;4307;53.868;11.680;2023-11-21T07:01:20;6.90;99.90
8539;DHT22;4307;53.868;11.680;2023-11-21T07:03:46;6.90;99.90
8539;DHT22;4307;53.868;11.680;2023-11-21T07:06:13;6.90;99.90
8539;DHT22;4307;53.868;11.680;2023-11-21T07:08:40;6.90;99.90
8539;DHT22;4307;53.868;11.680;2023-11-21T07:11:08;6.90;99.90
8539;DHT22;4307;53.868;11.680;2023-11-21T07:13:34;6.90;99.90
8539;DHT22;4307;53.868;11.680;2023-11-21T07:16:03;6.90;99.90
8539;DHT22;4307;53.868;11.680;2023-11-21T07:18:30;6.90;99.90
8539;DHT22;4307;53.868;11.680;2023-11-21T07:20:56;6.90;99.90
8539;DHT22;4307;53.868;11.680;2023-11-21T07:23:24;6.90;99.90
8539;DHT22;4307;53.868;11.680;2023-11-21T07:25:51;6.90;99.90
8539;DHT22;4307;53.868;11.680;2023-11-21T07:28:18;6.90;99.90
8539;DHT22;4307;53.868;11.680;2023-11-21T07:30:45;6.90;99.90
8539;DHT22;4307;53.868;11.680;2023-11-21T07:33:13;6.90;99.90
8539;DHT22;4307;53.868;11.680;2023-11-21T07:35:40;7.00;99.90
8539;DHT22;4307;53.868;11.680;2023-11-21T07:38:06;7.00;99.90
8539;DHT22;4307;53.868;11.680;2023-11-21T07:40:33;7.00;99.90
8539;DHT22;4307;53.868;11.680;2023-11-21T07:42:59;7.00;99.90
8539;DHT22;4307;53.868;11.680;2023-11-21T07:45:26;7.00;99.90
8539;DHT22;4307;53.868;11.680;2023-11-21T07:47:54;7.10;99.90
8539;DHT22;4307;53.868;11.680;2023-11-21T07:50:22;7.10;99.90
8539;DHT22;4307;53.868;11.680;2023-11-21T07:52:48;7.10;99.90
8539;DHT22;4307;53.868;11.680;2023-11-21T07:55:16;7.10;99.90
8539;DHT22;4307;53.868;11.680;2023-11-21T07:57:43;7.20;99.90
8539;DHT22;4307;53.868;11.680;2023-11-21T08:00:10;7.20;99.90
8539;DHT22;4307;53.868;11.680;2023-11-21T08:02:38;7.30;99.90
8539;DHT22;4307;53.868;11.680;2023-11-21T08:05:05;7.30;99.90
8539;DHT22;4307;53.868;11.680;2023-11-21T08:07:34;7.30;99.90
8539;DHT22;4307;53.868;11.680;2023-11-21T08:10:00;7.40;99.90
8539;DHT22;4307;53.868;11.680;2023-11-21T08:12:27;7.40;99.90
8539;DHT22;4307;53.868;11.680;2023-11-21T08:14:54;7.30;99.90
8539;DHT22;4307;53.868;11.680;2023-11-21T08:17:20;7.30;99.90
8539;DHT22;4307;53.868;11.680;2023-11-21T08:19:48;7.30;99.90
8539;DHT22;4307;53.868;11.680;2023-11-21T08:22:16;7.20;99.90
8539;DHT22;4307;53.868;11.680;2023-11-21T08:24:45;7.20;99.90
8539;DHT22;4307;53.868;11.680;2023-11-21T08:27:12;7.10;99.90
8539;DHT22;4307;53.868;11.680;2023-11-21T08:29:41;7.20;99.90
8539;DHT22;4307;53.868;11.680;2023-11-21T08:32:07;7.10;99.90
8539;DHT22;4307;53.868;11.680;2023-11-21T08:34:35;7.10;99.90
8539;DHT22;4307;53.868;11.680;2023-11-21T08:37:01;7.10;99.90
8539;DHT22;4307;53.868;11.680;2023-11-21T08:39:28;7.10;99.90
8539;DHT22;4307;53.868;11.680;2023-11-21T08:41:57;7.20;99.90
8539;DHT22;4307;53.868;11.680;2023-11-21T08:44:23;7.20;99.90
8539;DHT22;4307;53.868;11.680;2023-11-21T08:46:50;7.30;99.90
8539;DHT22;4307;53.868;11.680;2023-11-21T08:49:17;7.50;99.90
8539;DHT22;4307;53.868;11.680;2023-11-21T08:51:46;7.60;99.90
8539;DHT22;4307;53.868;11.680;2023-11-21T08:54:13;7.60;99.90
8539;DHT22;4307;53.868;11.680;2023-11-21T08:56:41;7.60;99.90
8539;DHT22;4307;53.868;11.680;2023-11-21T08:59:10;7.60;99.90
8539;DHT22;4307;53.868;11.680;2023-11-21T09:01:40;7.60;99.90
8539;DHT22;4307;53.868;11.680;2023-11-21T09:04:07;7.60;99.90
8539;DHT22;4307;53.868;11.680;2023-11-21T09:06:33;7.60;99.90
8539;DHT22;4307;53.868;11.680;2023-11-21T09:09:00;7.60;99.90
8539;DHT22;4307;53.868;11.680;2023-11-21T09:11:27;7.70;99.90
8539;DHT22;4307;53.868;11.680;2023-11-21T09:13:59;7.80;99.90
8539;DHT22;4307;53.868;11.680;2023-11-21T09:16:27;7.90;99.90
8539;DHT22;4307;53.868;11.680;2023-11-21T09:18:53;7.90;99.90
8539;DHT22;4307;53.868;11.680;2023-11-21T09:21:20;7.80;99.90
8539;DHT22;4307;53.868;11.680;2023-11-21T09:23:48;7.70;99.90
8539;DHT22;4307;53.868;11.680;2023-11-21T09:26:14;7.60;99.90
8539;DHT22;4307;53.868;11.680;2023-11-21T09:28:41;7.60;99.90
8539;DHT22;4307;53.868;11.680;2023-11-21T09:31:12;7.50;99.90
8539;DHT22;4307;53.868;11.680;2023-11-21T09:33:42;7.40;99.90
8539;DHT22;4307;53.868;11.680;2023-11-21T09:36:11;7.40;99.90
8539;DHT22;4307;53.868;11.680;2023-11-21T09:38:39;7.40;99.90
8539;DHT22;4307;53.868;11.680;2023-11-21T09:41:21;7.40;99.90
8539;DHT22;4307;53.868;11.680;2023-11-21T09:43:51;7.50;99.90
8539;DHT22;4307;53.868;11.680;2023-11-21T09:46:22;7.50;99.90
8539;DHT22;4307;53.868;11.680;2023-11-21T09:48:52;7.50;99.90
8539;DHT22;4307;53.868;11.680;2023-11-21T09:51:20;7.50;99.90
8539;DHT22;4307;53.868;11.680;2023-11-21T09:53:50;7.60;99.90
8539;DHT22;4307;53.868;11.680;2023-11-21T09:56:18;7.50;99.90
8539;DHT22;4307;53.868;11.680;2023-11-21T09:58:51;7.50;99.90
8539;DHT22;4307;53.868;11.680;2023-11-21T10:01:18;7.60;99.90
8539;DHT22;4307;53.868;11.680;2023-11-21T10:03:45;7.60;99.90
8539;DHT22;4307;53.868;11.680;2023-11-21T10:06:14;7.50;99.90
8539;DHT22;4307;53.868;11.680;2023-11-21T10:08:41;7.50;99.90
8539;DHT22;4307;53.868;11.680;2023-11-21T10:11:08;7.50;99.90
8539;DHT22;4307;53.868;11.680;2023-11-21T10:13:37;7.50;99.90
8539;DHT22;4307;53.868;11.680;2023-11-21T10:16:07;7.50;99.90
8539;DHT22;4307;53.868;11.680;2023-11-21T10:18:37;7.50;99.90
8539;DHT22;4307;53.868;11.680;2023-11-21T10:21:06;7.50;99.90
8539;DHT22;4307;53.868;11.680;2023-11-21T10:23:34;7.50;99.90
8539;DHT22;4307;53.868;11.680;2023-11-21T10:26:01;7.60;99.90
8539;DHT22;4307;53.868;11.680;2023-11-21T10:28:28;7.60;99.90
8539;DHT22;4307;53.868;11.680;2023-11-21T10:30:55;7.60;99.90
8539;DHT22;4307;53.868;11.680;2023-11-21T10:33:27;7.60;99.90
8539;DHT22;4307;53.868;11.680;2023-11-21T10:35:54;7.70;99.90
8539;DHT22;4307;53.868;11.680;2023-11-21T10:38:21;7.70;99.90
8539;DHT22;4307;53.868;11.680;2023-11-21T10:40:51;7.70;99.90
8539;DHT22;4307;53.868;11.680;2023-11-21T10:43:24;7.80;99.90
8539;DHT22;4307;53.868;11.680;2023-11-21T10:45:50;7.80;99.90
8539;DHT22;4307;53.868;11.680;2023-11-21T10:48:17;7.70;99.90
8539;DHT22;4307;53.868;11.680;2023-11-21T10:50:45;7.70;99.90
8539;DHT22;4307;53.868;11.680;2023-11-21T10:53:12;7.70;99.90
8539;DHT22;4307;53.868;11.680;2023-11-21T10:55:39;7.70;99.90
8539;DHT22;4307;53.868;11.680;2023-11-21T10:58:08;7.70;99.90
8539;DHT22;4307;53.868;11.680;2023-11-21T11:00:37;7.70;99.90
8539;DHT22;4307;53.868;11.680;2023-11-21T11:03:06;7.70;99.90
8539;DHT22;4307;53.868;11.680;2023-11-21T11:05:40;7.70;99.90
8539;DHT22;4307;53.868;11.680;2023-11-21T11:08:12;7.60;99.90
8539;DHT22;4307;53.868;11.680;2023-11-21T11:10:44;7.60;99.90
8539;DHT22;4307;53.868;11.680;2023-11-21T11:13:13;7.50;99.90
8539;DHT22;4307;53.868;11.680;2023-11-21T11:15:41;7.50;99.90
8539;DHT22;4307;53.868;11.680;2023-11-21T11:18:08;7.50;99.90
8539;DHT22;4307;53.868;11.680;2023-11-21T11:20:37;7.50;99.90
8539;DHT22;4307;53.868;11.680;2023-11-21T11:23:18;7.50;99.90
8539;DHT22;4307;53.868;11.680;2023-11-21T11:26:01;7.50;99.90
8539;DHT22;4307;53.868;11.680;2023-11-21T11:28:52;7.50;99.90
8539;DHT22;4307;53.868;11.680;2023-11-21T11:31:30;7.60;99.90
8539;DHT22;4307;53.868;11.680;2023-11-21T11:34:01;7.60;99.90
8539;DHT22;4307;53.868;11.680;2023-11-21T11:36:35;7.60;99.90
8539;DHT22;4307;53.868;11.680;2023-11-21T11:39:03;7.60;99.90
8539;DHT22;4307;53.868;11.680;2023-11-21T11:41:31;7.60;99.90
8539;DHT22;4307;53.868;11.680;2023-11-21T11:44:01;7.60;99.90
8539;DHT22;4307;53.868;11.680;2023-11-21T11:46:44;7.70;99.90
8539;DHT22;4307;53.868;11.680;2023-11-21T11:49:23;7.70;99.90
8539;DHT22;4307;53.868;11.680;2023-11-21T11:52:31;7.70;99.90
8539;DHT22;4307;53.868;11.680;2023-11-21T11:54:59;7.70;99.90
8539;DHT22;4307;53.868;11.680;2023-11-21T11:57:26;7.60;99.90
8539;DHT22;4307;53.868;11.680;2023-11-21T12:00:11;7.70;99.90
8539;DHT22;4307;53.868;11.680;2023-11-21T12:02:41;7.80;99.90
8539;DHT22;4307;53.868;11.680;2023-11-21T12:05:09;7.80;99.90
8539;DHT22;4307;53.868;11.680;2023-11-21T12:07:47;7.90;99.90
8539;DHT22;4307;53.868;11.680;2023-11-21T12:10:15;7.90;99.90
8539;DHT22;4307;53.868;11.680;2023-11-21T12:12:47;7.90;99.90
8539;DHT22;4307;53.868;11.680;2023-11-21T12:15:16;7.90;99.90
8539;DHT22;4307;53.868;11.680;2023-11-21T12:17:44;7.80;99.90
8539;DHT22;4307;53.868;11.680;2023-11-21T12:20:11;7.90;99.90
8539;DHT22;4307;53.868;11.680;2023-11-21T12:22:44;7.90;99.90
8539;DHT22;4307;53.868;11.680;2023-11-21T12:25:13;7.90;99.90
8539;DHT22;4307;53.868;11.680;2023-11-21T12:27:42;8.00;99.90
8539;DHT22;4307;53.868;11.680;2023-11-21T12:30:11;8.10;99.90
8539;DHT22;4307;53.868;11.680;2023-11-21T12:32:40;8.00;99.90
8539;DHT22;4307;53.868;11.680;2023-11-21T12:35:08;8.00;99.90
8539;DHT22;4307;53.868;11.680;2023-11-21T12:37:36;8.00;99.90
8539;DHT22;4307;53.868;11.680;2023-11-21T12:40:04;7.90;99.90
8539;DHT22;4307;53.868;11.680;2023-11-21T12:42:32;7.90;99.90
8539;DHT22;4307;53.868;11.680;2023-11-21T12:45:10;7.90;99.90
8539;DHT22;4307;53.868;11.680;2023-11-21T12:47:42;7.90;99.90
8539;DHT22;4307;53.868;11.680;2023-11-21T12:50:09;7.90;99.90
8539;DHT22;4307;53.868;11.680;2023-11-21T12:52:41;7.80;99.90
8539;DHT22;4307;53.868;11.680;2023-11-21T12:55:09;7.80;99.90
8539;DHT22;4307;53.868;11.680;2023-11-21T12:57:41;7.70;99.90
8539;DHT22;4307;53.868;11.680;2023-11-21T13:00:09;7.70;99.90
8539;DHT22;4307;53.868;11.680;2023-11-21T13:02:42;7.70;99.90
8539;DHT22;4307;53.868;11.680;2023-11-21T13:05:09;7.70;99.90
8539;DHT22;4307;53.868;11.680;2023-11-21T13:07:46;7.70;99.90
8539;DHT22;4307;53.868;11.680;2023-11-21T13:10:16;7.60;99.90
8539;DHT22;4307;53.868;11.680;2023-11-21T13:12:43;7.60;99.90
8539;DHT22;4307;53.868;11.680;2023-11-21T13:15:14;7.60;99.90
8539;DHT22;4307;53.868;11.680;2023-11-21T13:17:45;7.60;99.90
8539;DHT22;4307;53.868;11.680;2023-11-21T13:20:11;7.60;99.90
8539;DHT22;4307;53.868;11.680;2023-11-21T13:22:48;7.60;99.90
8539;DHT22;4307;53.868;11.680;2023-11-21T13:25:15;7.60;99.90
8539;DHT22;4307;53.868;11.680;2023-11-21T13:27:43;7.60;99.90
8539;DHT22;4307;53.868;11.680;2023-11-21T13:30:12;7.60;99.90
8539;DHT22;4307;53.868;11.680;2023-11-21T13:32:43;7.50;99.90
8539;DHT22;4307;53.868;11.680;2023-11-21T13:35:11;7.50;99.90
8539;DHT22;4307;53.868;11.680;2023-11-21T13:37:47;7.50;99.90
8539;DHT22;4307;53.868;11.680;2023-11-21T13:40:19;7.60;99.90
8539;DHT22;4307;53.868;11.680;2023-11-21T13:42:48;7.60;99.90
8539;DHT22;4307;53.868;11.680;2023-11-21T13:45:19;7.60;99.90
8539;DHT22;4307;53.868;11.680;2023-11-21T13:47:47;7.50;99.90
8539;DHT22;4307;53.868;11.680;2023-11-21T13:50:16;7.50;99.90
8539;DHT22;4307;53.868;11.680;2023-11-21T13:52:48;7.50;99.90
8539;DHT22;4307;53.868;11.680;2023-11-21T13:55:15;7.40;99.90
8539;DHT22;4307;53.868;11.680;2023-11-21T13:57:42;7.40;99.90
8539;DHT22;4307;53.868;11.680;2023-11-21T14:00:13;7.30;99.90
8539;DHT22;4307;53.868;11.680;2023-11-21T14:03:02;7.30;99.90
8539;DHT22;4307;53.868;11.680;2023-11-21T14:05:34;7.30;99.90
8539;DHT22;4307;53.868;11.680;2023-11-21T14:08:00;7.30;99.90
8539;DHT22;4307;53.868;11.680;2023-11-21T14:10:30;7.20;99.90
8539;DHT22;4307;53.868;11.680;2023-11-21T14:13:05;7.10;99.90
8539;DHT22;4307;53.868;11.680;2023-11-21T14:15:32;7.00;99.90
8539;DHT22;4307;53.868;11.680;2023-11-21T14:18:05;6.80;99.90
8539;DHT22;4307;53.868;11.680;2023-11-21T14:20:33;6.70;99.90
8539;DHT22;4307;53.868;11.680;2023-11-21T14:23:01;6.70;99.90
8539;DHT22;4307;53.868;11.680;2023-11-21T14:25:28;6.60;99.90
8539;DHT22;4307;53.868;11.680;2023-11-21T14:27:55;6.50;99.90
8539;DHT22;4307;53.868;11.680;2023-11-21T14:30:22;6.50;99.90
8539;DHT22;4307;53.868;11.680;2023-11-21T14:32:49;6.40;99.90
8539;DHT22;4307;53.868;11.680;2023-11-21T14:35:17;6.40;99.90
8539;DHT22;4307;53.868;11.680;2023-11-21T14:37:44;6.30;99.90
8539;DHT22;4307;53.868;11.680;2023-11-21T14:40:12;6.30;99.90
8539;DHT22;4307;53.868;11.680;2023-11-21T14:42:41;6.30;99.90
8539;DHT22;4307;53.868;11.680;2023-11-21T14:45:09;6.30;99.90
8539;DHT22;4307;53.868;11.680;2023-11-21T14:47:38;6.20;99.90
8539;DHT22;4307;53.868;11.680;2023-11-21T14:50:09;6.20;99.90
8539;DHT22;4307;53.868;11.680;2023-11-21T14:53:05;6.10;99.90
8539;DHT22;4307;53.868;11.680;2023-11-21T14:55:32;6.00;99.90
8539;DHT22;4307;53.868;11.680;2023-11-21T14:58:08;5.90;99.90
8539;DHT22;4307;53.868;11.680;2023-11-21T15:00:38;5.90;99.90
8539;DHT22;4307;53.868;11.680;2023-11-21T15:03:10;5.80;99.90
8539;DHT22;4307;53.868;11.680;2023-11-21T15:05:43;5.80;99.90
8539;DHT22;4307;53.868;11.680;2023-11-21T15:08:11;5.80;99.90
8539;DHT22;4307;53.868;11.680;2023-11-21T15:10:47;5.80;99.90
8539;DHT22;4307;53.868;11.680;2023-11-21T15:13:18;5.70;99.90
8539;DHT22;4307;53.868;11.680;2023-11-21T15:15:44;5.70;99.90
8539;DHT22;4307;53.868;11.680;2023-11-21T15:18:11;5.70;99.90
8539;DHT22;4307;53.868;11.680;2023-11-21T15:20:39;5.60;99.90
8539;DHT22;4307;53.868;11.680;2023-11-21T15:23:06;5.70;99.90
8539;DHT22;4307;53.868;11.680;2023-11-21T15:25:35;5.70;99.90
8539;DHT22;4307;53.868;11.680;2023-11-21T15:28:02;5.70;99.90
8539;DHT22;4307;53.868;11.680;2023-11-21T15:30:30;5.70;99.90
8539;DHT22;4307;53.868;11.680;2023-11-21T15:32:57;5.70;99.90
8539;DHT22;4307;53.868;11.680;2023-11-21T15:35:24;5.70;99.90
8539;DHT22;4307;53.868;11.680;2023-11-21T15:37:52;5.70;99.90
8539;DHT22;4307;53.868;11.680;2023-11-21T15:40:19;5.80;99.90
8539;DHT22;4307;53.868;11.680;2023-11-21T15:42:47;5.80;99.90
8539;DHT22;4307;53.868;11.680;2023-11-21T15:45:15;5.80;99.90
8539;DHT22;4307;53.868;11.680;2023-11-21T15:47:44;5.80;99.90
8539;DHT22;4307;53.868;11.680;2023-11-21T15:50:11;5.80;99.90
8539;DHT22;4307;53.868;11.680;2023-11-21T15:52:41;5.80;99.90
8539;DHT22;4307;53.868;11.680;2023-11-21T15:55:09;5.80;99.90
8539;DHT22;4307;53.868;11.680;2023-11-21T15:57:36;5.80;99.90
8539;DHT22;4307;53.868;11.680;2023-11-21T16:00:19;5.80;99.90
8539;DHT22;4307;53.868;11.680;2023-11-21T16:02:48;5.80;99.90
8539;DHT22;4307;53.868;11.680;2023-11-21T16:05:14;5.70;99.90
8539;DHT22;4307;53.868;11.680;2023-11-21T16:07:43;5.80;99.90
8539;DHT22;4307;53.868;11.680;2023-11-21T16:10:10;5.80;99.90